sensor_id;sensor_type;location;lat;lon;timestamp;P1;durP1;ratioP1;P2;durP2;ratioP2
8986;SDS011;4529;51.360;12.474;2024-02-28T00:03:41;17.57;;;10.20;;
8986;SDS011;4529;51.360;12.474;2024-02-28T00:08:45;19.00;;;9.50;;
8986;SDS011;4529;51.360;12.474;2024-02-28T00:13:49;17.73;;;9.63;;
8986;SDS011;4529;51.360;12.474;2024-02-28T00:18:53;17.50;;;8.93;;
8986;SDS011;4529;51.360;12.474;2024-02-28T00:23:57;16.90;;;9.30;;
8986;SDS011;4529;51.360;12.474;2024-02-28T00:29:01;16.13;;;9.03;;
8986;SDS011;4529;51.360;12.474;2024-02-28T00:34:06;16.33;;;9.00;;
8986;SDS011;4529;51.360;12.474;2024-02-28T00:39:10;13.63;;;8.63;;
8986;SDS011;4529;51.360;12.474;2024-02-28T00:44:12;16.53;;;9.63;;
8986;SDS011;4529;51.360;12.474;2024-02-28T00:49:16;16.03;;;9.30;;
8986;SDS011;4529;51.360;12.474;2024-02-28T00:54:19;18.67;;;10.33;;
8986;SDS011;4529;51.360;12.474;2024-02-28T00:59:23;16.97;;;9.77;;
8986;SDS011;4529;51.360;12.474;2024-02-28T01:04:26;22.70;;;10.83;;
8986;SDS011;4529;51.360;12.474;2024-02-28T01:09:30;19.33;;;10.63;;
8986;SDS011;4529;51.360;12.474;2024-02-28T01:14:34;20.37;;;10.50;;
8986;SDS011;4529;51.360;12.474;2024-02-28T01:19:38;22.53;;;11.10;;
8986;SDS011;4529;51.360;12.474;2024-02-28T01:24:42;20.73;;;10.97;;
8986;SDS011;4529;51.360;12.474;2024-02-28T01:29:46;17.87;;;10.27;;
8986;SDS011;4529;51.360;12.474;2024-02-28T01:34:50;18.17;;;10.03;;
8986;SDS011;4529;51.360;12.474;2024-02-28T01:39:54;19.07;;;10.03;;
8986;SDS011;4529;51.360;12.474;2024-02-28T01:44:57;17.10;;;9.70;;
8986;SDS011;4529;51.360;12.474;2024-02-28T01:50:01;15.77;;;8.97;;
8986;SDS011;4529;51.360;12.474;2024-02-28T01:55:06;14.83;;;8.87;;
8986;SDS011;4529;51.360;12.474;2024-02-28T02:00:09;13.87;;;8.50;;
8986;SDS011;4529;51.360;12.474;2024-02-28T02:05:13;12.67;;;8.17;;
8986;SDS011;4529;51.360;12.474;2024-02-28T02:10:17;14.77;;;8.07;;
8986;SDS011;4529;51.360;12.474;2024-02-28T02:15:21;13.90;;;8.30;;
8986;SDS011;4529;51.360;12.474;2024-02-28T02:20:25;13.00;;;8.33;;
8986;SDS011;4529;51.360;12.474;2024-02-28T02:25:28;15.63;;;7.93;;
8986;SDS011;4529;51.360;12.474;2024-02-28T02:30:31;13.93;;;8.03;;
8986;SDS011;4529;51.360;12.474;2024-02-28T02:35:35;14.43;;;7.83;;
8986;SDS011;4529;51.360;12.474;2024-02-28T02:40:38;13.40;;;8.20;;
8986;SDS011;4529;51.360;12.474;2024-02-28T02:45:42;13.80;;;8.20;;
8986;SDS011;4529;51.360;12.474;2024-02-28T02:50:46;13.47;;;8.63;;
8986;SDS011;4529;51.360;12.474;2024-02-28T02:55:49;15.40;;;8.80;;
8986;SDS011;4529;51.360;12.474;2024-02-28T03:00:53;20.03;;;11.17;;
8986;SDS011;4529;51.360;12.474;2024-02-28T03:05:57;25.23;;;12.43;;
8986;SDS011;4529;51.360;12.474;2024-02-28T03:11:01;21.50;;;12.23;;
8986;SDS011;4529;51.360;12.474;2024-02-28T03:16:05;22.40;;;11.93;;
8986;SDS011;4529;51.360;12.474;2024-02-28T03:21:08;18.33;;;11.10;;
8986;SDS011;4529;51.360;12.474;2024-02-28T03:26:12;17.07;;;10.53;;
8986;SDS011;4529;51.360;12.474;2024-02-28T03:31:16;15.20;;;10.00;;
8986;SDS011;4529;51.360;12.474;2024-02-28T03:36:20;16.27;;;10.40;;
8986;SDS011;4529;51.360;12.474;2024-02-28T03:41:24;18.33;;;11.50;;
8986;SDS011;4529;51.360;12.474;2024-02-28T03:46:28;16.77;;;10.63;;
8986;SDS011;4529;51.360;12.474;2024-02-28T03:51:38;19.73;;;11.47;;
8986;SDS011;4529;51.360;12.474;2024-02-28T03:56:37;18.27;;;10.90;;
8986;SDS011;4529;51.360;12.474;2024-02-28T04:01:41;17.87;;;11.30;;
8986;SDS011;4529;51.360;12.474;2024-02-28T04:06:45;19.10;;;11.67;;
8986;SDS011;4529;51.360;12.474;2024-02-28T04:11:49;22.50;;;12.73;;
8986;SDS011;4529;51.360;12.474;2024-02-28T04:16:53;23.27;;;13.47;;
8986;SDS011;4529;51.360;12.474;2024-02-28T04:21:56;19.30;;;12.70;;
8986;SDS011;4529;51.360;12.474;2024-02-28T04:26:59;27.07;;;13.77;;
8986;SDS011;4529;51.360;12.474;2024-02-28T04:32:04;22.67;;;13.53;;
8986;SDS011;4529;51.360;12.474;2024-02-28T04:37:08;22.90;;;13.53;;
8986;SDS011;4529;51.360;12.474;2024-02-28T04:42:12;19.50;;;12.00;;
8986;SDS011;4529;51.360;12.474;2024-02-28T04:47:15;21.60;;;12.53;;
8986;SDS011;4529;51.360;12.474;2024-02-28T04:52:19;19.57;;;12.53;;
8986;SDS011;4529;51.360;12.474;2024-02-28T04:57:23;20.10;;;12.03;;
8986;SDS011;4529;51.360;12.474;2024-02-28T05:02:27;22.83;;;11.97;;
8986;SDS011;4529;51.360;12.474;2024-02-28T05:07:32;20.00;;;11.87;;
8986;SDS011;4529;51.360;12.474;2024-02-28T05:12:36;16.67;;;11.57;;
8986;SDS011;4529;51.360;12.474;2024-02-28T05:17:40;17.60;;;10.83;;
8986;SDS011;4529;51.360;12.474;2024-02-28T05:22:44;17.33;;;10.40;;
8986;SDS011;4529;51.360;12.474;2024-02-28T05:27:48;17.80;;;10.87;;
8986;SDS011;4529;51.360;12.474;2024-02-28T05:32:52;19.57;;;12.33;;
8986;SDS011;4529;51.360;12.474;2024-02-28T05:37:56;19.23;;;12.07;;
8986;SDS011;4529;51.360;12.474;2024-02-28T05:43:00;21.20;;;13.37;;
8986;SDS011;4529;51.360;12.474;2024-02-28T05:48:03;21.93;;;13.10;;
8986;SDS011;4529;51.360;12.474;2024-02-28T05:53:07;22.10;;;13.60;;
8986;SDS011;4529;51.360;12.474;2024-02-28T05:58:10;21.37;;;13.23;;
8986;SDS011;4529;51.360;12.474;2024-02-28T06:03:14;20.73;;;13.73;;
8986;SDS011;4529;51.360;12.474;2024-02-28T06:08:18;21.07;;;13.03;;
8986;SDS011;4529;51.360;12.474;2024-02-28T06:13:21;18.43;;;12.20;;
8986;SDS011;4529;51.360;12.474;2024-02-28T06:18:25;22.20;;;13.60;;
8986;SDS011;4529;51.360;12.474;2024-02-28T06:23:29;22.03;;;13.40;;
8986;SDS011;4529;51.360;12.474;2024-02-28T06:28:33;19.33;;;12.53;;
8986;SDS011;4529;51.360;12.474;2024-02-28T06:33:37;20.00;;;12.73;;
8986;SDS011;4529;51.360;12.474;2024-02-28T06:38:41;18.67;;;12.07;;
8986;SDS011;4529;51.360;12.474;2024-02-28T06:43:45;19.70;;;12.40;;
8986;SDS011;4529;51.360;12.474;2024-02-28T06:48:49;17.57;;;12.30;;
8986;SDS011;4529;51.360;12.474;2024-02-28T06:53:54;19.13;;;12.53;;
8986;SDS011;4529;51.360;12.474;2024-02-28T06:58:58;17.37;;;11.67;;
8986;SDS011;4529;51.360;12.474;2024-02-28T07:04:01;19.17;;;12.47;;
8986;SDS011;4529;51.360;12.474;2024-02-28T07:09:07;19.27;;;12.37;;
8986;SDS011;4529;51.360;12.474;2024-02-28T07:14:10;18.53;;;12.03;;
8986;SDS011;4529;51.360;12.474;2024-02-28T07:19:14;19.60;;;12.30;;
8986;SDS011;4529;51.360;12.474;2024-02-28T07:24:18;17.40;;;11.97;;
8986;SDS011;4529;51.360;12.474;2024-02-28T07:29:22;19.50;;;11.57;;
8986;SDS011;4529;51.360;12.474;2024-02-28T07:34:26;17.87;;;11.40;;
8986;SDS011;4529;51.360;12.474;2024-02-28T07:39:30;17.93;;;11.40;;
8986;SDS011;4529;51.360;12.474;2024-02-28T07:44:35;18.87;;;12.23;;
8986;SDS011;4529;51.360;12.474;2024-02-28T07:49:39;17.50;;;11.00;;
8986;SDS011;4529;51.360;12.474;2024-02-28T07:54:43;17.97;;;11.77;;
8986;SDS011;4529;51.360;12.474;2024-02-28T07:59:46;9.97;;;6.17;;
8986;SDS011;4529;51.360;12.474;2024-02-28T08:04:50;15.40;;;7.67;;
8986;SDS011;4529;51.360;12.474;2024-02-28T08:09:53;13.67;;;7.27;;
8986;SDS011;4529;51.360;12.474;2024-02-28T08:14:57;9.47;;;5.50;;
8986;SDS011;4529;51.360;12.474;2024-02-28T08:20:00;8.50;;;5.67;;
8986;SDS011;4529;51.360;12.474;2024-02-28T08:25:04;14.93;;;7.47;;
8986;SDS011;4529;51.360;12.474;2024-02-28T08:30:09;19.40;;;11.67;;
8986;SDS011;4529;51.360;12.474;2024-02-28T08:35:12;20.33;;;13.40;;
8986;SDS011;4529;51.360;12.474;2024-02-28T08:40:15;20.90;;;12.33;;
8986;SDS011;4529;51.360;12.474;2024-02-28T08:45:19;22.00;;;13.80;;
8986;SDS011;4529;51.360;12.474;2024-02-28T08:50:23;23.90;;;15.77;;
8986;SDS011;4529;51.360;12.474;2024-02-28T08:55:27;27.37;;;16.90;;
8986;SDS011;4529;51.360;12.474;2024-02-28T09:00:31;25.00;;;16.00;;
8986;SDS011;4529;51.360;12.474;2024-02-28T09:05:35;22.30;;;14.53;;
8986;SDS011;4529;51.360;12.474;2024-02-28T09:10:39;23.17;;;14.47;;
8986;SDS011;4529;51.360;12.474;2024-02-28T09:15:44;22.53;;;14.90;;
8986;SDS011;4529;51.360;12.474;2024-02-28T09:20:48;17.40;;;11.80;;
8986;SDS011;4529;51.360;12.474;2024-02-28T09:25:51;16.10;;;11.53;;
8986;SDS011;4529;51.360;12.474;2024-02-28T09:30:55;17.00;;;11.17;;
8986;SDS011;4529;51.360;12.474;2024-02-28T09:35:58;17.13;;;11.70;;
8986;SDS011;4529;51.360;12.474;2024-02-28T09:41:02;16.73;;;11.10;;
8986;SDS011;4529;51.360;12.474;2024-02-28T09:46:05;13.53;;;10.03;;
8986;SDS011;4529;51.360;12.474;2024-02-28T09:51:08;14.60;;;10.23;;
8986;SDS011;4529;51.360;12.474;2024-02-28T09:56:12;15.80;;;10.63;;
8986;SDS011;4529;51.360;12.474;2024-02-28T10:01:16;13.63;;;10.07;;
8986;SDS011;4529;51.360;12.474;2024-02-28T10:06:20;15.27;;;10.03;;
8986;SDS011;4529;51.360;12.474;2024-02-28T10:11:24;15.03;;;10.40;;
8986;SDS011;4529;51.360;12.474;2024-02-28T10:16:29;16.97;;;10.13;;
8986;SDS011;4529;51.360;12.474;2024-02-28T10:21:32;14.43;;;10.43;;
8986;SDS011;4529;51.360;12.474;2024-02-28T10:26:55;15.77;;;11.13;;
8986;SDS011;4529;51.360;12.474;2024-02-28T10:31:49;15.00;;;11.20;;
8986;SDS011;4529;51.360;12.474;2024-02-28T10:36:52;13.30;;;9.77;;
8986;SDS011;4529;51.360;12.474;2024-02-28T10:41:56;17.03;;;12.47;;
8986;SDS011;4529;51.360;12.474;2024-02-28T10:47:00;18.40;;;12.00;;
8986;SDS011;4529;51.360;12.474;2024-02-28T10:52:03;14.57;;;11.17;;
8986;SDS011;4529;51.360;12.474;2024-02-28T10:57:07;15.23;;;11.40;;
8986;SDS011;4529;51.360;12.474;2024-02-28T11:02:11;16.87;;;12.20;;
8986;SDS011;4529;51.360;12.474;2024-02-28T11:07:19;17.80;;;12.97;;
8986;SDS011;4529;51.360;12.474;2024-02-28T11:12:26;17.07;;;12.27;;
8986;SDS011;4529;51.360;12.474;2024-02-28T11:17:32;21.27;;;16.03;;
8986;SDS011;4529;51.360;12.474;2024-02-28T11:22:36;21.07;;;15.50;;
8986;SDS011;4529;51.360;12.474;2024-02-28T11:27:46;20.13;;;15.70;;
8986;SDS011;4529;51.360;12.474;2024-02-28T11:32:52;20.83;;;15.37;;
8986;SDS011;4529;51.360;12.474;2024-02-28T11:37:55;16.70;;;12.97;;
8986;SDS011;4529;51.360;12.474;2024-02-28T11:42:59;14.17;;;11.33;;
8986;SDS011;4529;51.360;12.474;2024-02-28T11:48:03;16.27;;;12.37;;
8986;SDS011;4529;51.360;12.474;2024-02-28T11:53:07;15.07;;;11.17;;
8986;SDS011;4529;51.360;12.474;2024-02-28T11:58:10;16.63;;;12.63;;
8986;SDS011;4529;51.360;12.474;2024-02-28T12:03:13;19.37;;;11.83;;
8986;SDS011;4529;51.360;12.474;2024-02-28T12:08:17;15.80;;;11.70;;
8986;SDS011;4529;51.360;12.474;2024-02-28T12:13:22;15.60;;;11.57;;
8986;SDS011;4529;51.360;12.474;2024-02-28T12:18:25;14.23;;;10.90;;
8986;SDS011;4529;51.360;12.474;2024-02-28T12:23:28;14.63;;;10.97;;
8986;SDS011;4529;51.360;12.474;2024-02-28T12:28:32;15.30;;;11.30;;
8986;SDS011;4529;51.360;12.474;2024-02-28T12:33:36;15.17;;;11.10;;
8986;SDS011;4529;51.360;12.474;2024-02-28T12:38:40;13.17;;;10.50;;
8986;SDS011;4529;51.360;12.474;2024-02-28T12:43:43;11.97;;;9.57;;
8986;SDS011;4529;51.360;12.474;2024-02-28T12:48:46;14.43;;;9.60;;
8986;SDS011;4529;51.360;12.474;2024-02-28T12:53:50;13.57;;;10.07;;
8986;SDS011;4529;51.360;12.474;2024-02-28T12:58:54;11.73;;;9.13;;
8986;SDS011;4529;51.360;12.474;2024-02-28T13:03:58;13.60;;;9.80;;
8986;SDS011;4529;51.360;12.474;2024-02-28T13:09:03;12.93;;;10.30;;
8986;SDS011;4529;51.360;12.474;2024-02-28T13:14:06;13.03;;;9.97;;
8986;SDS011;4529;51.360;12.474;2024-02-28T13:19:10;11.00;;;9.07;;
8986;SDS011;4529;51.360;12.474;2024-02-28T13:24:14;11.10;;;8.93;;
8986;SDS011;4529;51.360;12.474;2024-02-28T13:29:18;10.90;;;9.00;;
8986;SDS011;4529;51.360;12.474;2024-02-28T13:34:23;10.70;;;8.97;;
8986;SDS011;4529;51.360;12.474;2024-02-28T13:39:27;11.13;;;8.73;;
8986;SDS011;4529;51.360;12.474;2024-02-28T13:44:31;11.07;;;8.70;;
8986;SDS011;4529;51.360;12.474;2024-02-28T13:49:34;10.53;;;8.50;;
8986;SDS011;4529;51.360;12.474;2024-02-28T13:54:38;10.67;;;8.77;;
8986;SDS011;4529;51.360;12.474;2024-02-28T13:59:41;11.83;;;9.40;;
8986;SDS011;4529;51.360;12.474;2024-02-28T14:04:45;11.37;;;9.23;;
8986;SDS011;4529;51.360;12.474;2024-02-28T14:09:49;12.00;;;9.67;;
8986;SDS011;4529;51.360;12.474;2024-02-28T14:14:54;12.40;;;9.30;;
8986;SDS011;4529;51.360;12.474;2024-02-28T14:19:58;12.67;;;9.27;;
8986;SDS011;4529;51.360;12.474;2024-02-28T14:25:02;11.00;;;9.03;;
8986;SDS011;4529;51.360;12.474;2024-02-28T14:30:09;13.33;;;9.53;;
8986;SDS011;4529;51.360;12.474;2024-02-28T14:35:12;11.00;;;8.80;;
8986;SDS011;4529;51.360;12.474;2024-02-28T14:40:17;11.93;;;8.70;;
8986;SDS011;4529;51.360;12.474;2024-02-28T14:45:21;10.93;;;8.70;;
8986;SDS011;4529;51.360;12.474;2024-02-28T14:50:24;12.90;;;9.03;;
8986;SDS011;4529;51.360;12.474;2024-02-28T14:55:28;10.93;;;8.60;;
8986;SDS011;4529;51.360;12.474;2024-02-28T15:00:31;11.07;;;8.43;;
8986;SDS011;4529;51.360;12.474;2024-02-28T15:05:35;11.03;;;8.43;;
8986;SDS011;4529;51.360;12.474;2024-02-28T15:10:38;10.17;;;8.30;;
8986;SDS011;4529;51.360;12.474;2024-02-28T15:15:41;9.07;;;7.40;;
8986;SDS011;4529;51.360;12.474;2024-02-28T15:20:45;9.60;;;7.67;;
8986;SDS011;4529;51.360;12.474;2024-02-28T15:25:48;10.73;;;7.07;;
8986;SDS011;4529;51.360;12.474;2024-02-28T15:30:52;9.83;;;7.63;;
8986;SDS011;4529;51.360;12.474;2024-02-28T15:35:55;8.87;;;7.00;;
8986;SDS011;4529;51.360;12.474;2024-02-28T15:40:59;9.50;;;7.20;;
8986;SDS011;4529;51.360;12.474;2024-02-28T15:46:03;8.97;;;6.80;;
8986;SDS011;4529;51.360;12.474;2024-02-28T15:51:07;8.10;;;6.77;;
8986;SDS011;4529;51.360;12.474;2024-02-28T15:56:11;7.93;;;6.00;;
8986;SDS011;4529;51.360;12.474;2024-02-28T16:01:15;8.37;;;6.50;;
8986;SDS011;4529;51.360;12.474;2024-02-28T16:06:19;8.47;;;6.20;;
8986;SDS011;4529;51.360;12.474;2024-02-28T16:11:23;8.10;;;6.50;;
8986;SDS011;4529;51.360;12.474;2024-02-28T16:16:27;8.93;;;6.53;;
8986;SDS011;4529;51.360;12.474;2024-02-28T16:21:31;8.03;;;6.33;;
8986;SDS011;4529;51.360;12.474;2024-02-28T16:26:36;11.07;;;8.07;;
8986;SDS011;4529;51.360;12.474;2024-02-28T16:31:40;10.50;;;7.47;;
8986;SDS011;4529;51.360;12.474;2024-02-28T16:36:44;8.17;;;6.93;;
8986;SDS011;4529;51.360;12.474;2024-02-28T16:41:47;9.40;;;7.13;;
8986;SDS011;4529;51.360;12.474;2024-02-28T16:46:51;9.30;;;7.20;;
8986;SDS011;4529;51.360;12.474;2024-02-28T16:51:54;9.13;;;7.40;;
8986;SDS011;4529;51.360;12.474;2024-02-28T16:56:58;10.37;;;7.77;;
8986;SDS011;4529;51.360;12.474;2024-02-28T17:02:03;12.13;;;8.30;;
8986;SDS011;4529;51.360;12.474;2024-02-28T17:07:06;13.57;;;9.27;;
8986;SDS011;4529;51.360;12.474;2024-02-28T17:12:10;13.30;;;9.03;;
8986;SDS011;4529;51.360;12.474;2024-02-28T17:17:13;12.80;;;9.13;;
8986;SDS011;4529;51.360;12.474;2024-02-28T17:22:16;11.77;;;8.90;;
8986;SDS011;4529;51.360;12.474;2024-02-28T17:27:20;13.10;;;9.63;;
8986;SDS011;4529;51.360;12.474;2024-02-28T17:32:23;17.13;;;12.23;;
8986;SDS011;4529;51.360;12.474;2024-02-28T17:37:28;17.47;;;11.00;;
8986;SDS011;4529;51.360;12.474;2024-02-28T17:42:32;12.57;;;8.97;;
8986;SDS011;4529;51.360;12.474;2024-02-28T17:47:36;12.50;;;9.10;;
8986;SDS011;4529;51.360;12.474;2024-02-28T17:52:40;12.40;;;9.13;;
8986;SDS011;4529;51.360;12.474;2024-02-28T17:57:43;13.23;;;9.13;;
8986;SDS011;4529;51.360;12.474;2024-02-28T18:02:47;13.10;;;8.70;;
8986;SDS011;4529;51.360;12.474;2024-02-28T18:07:50;13.53;;;9.27;;
8986;SDS011;4529;51.360;12.474;2024-02-28T18:12:54;15.10;;;9.70;;
8986;SDS011;4529;51.360;12.474;2024-02-28T18:17:57;13.53;;;10.10;;
8986;SDS011;4529;51.360;12.474;2024-02-28T18:23:01;14.50;;;10.30;;
8986;SDS011;4529;51.360;12.474;2024-02-28T18:28:05;13.87;;;9.97;;
8986;SDS011;4529;51.360;12.474;2024-02-28T18:33:10;13.80;;;9.57;;
8986;SDS011;4529;51.360;12.474;2024-02-28T18:38:14;17.37;;;11.30;;
8986;SDS011;4529;51.360;12.474;2024-02-28T18:43:18;17.43;;;10.33;;
8986;SDS011;4529;51.360;12.474;2024-02-28T18:48:22;16.07;;;11.03;;
8986;SDS011;4529;51.360;12.474;2024-02-28T18:53:25;18.43;;;12.23;;
8986;SDS011;4529;51.360;12.474;2024-02-28T18:58:29;23.47;;;12.87;;
8986;SDS011;4529;51.360;12.474;2024-02-28T19:03:32;20.97;;;11.87;;
8986;SDS011;4529;51.360;12.474;2024-02-28T19:08:36;18.17;;;12.47;;
8986;SDS011;4529;51.360;12.474;2024-02-28T19:13:39;19.17;;;12.20;;
8986;SDS011;4529;51.360;12.474;2024-02-28T19:18:43;19.90;;;12.43;;
8986;SDS011;4529;51.360;12.474;2024-02-28T19:23:46;18.47;;;11.87;;
8986;SDS011;4529;51.360;12.474;2024-02-28T19:28:50;16.57;;;11.27;;
8986;SDS011;4529;51.360;12.474;2024-02-28T19:33:53;18.13;;;11.27;;
8986;SDS011;4529;51.360;12.474;2024-02-28T19:38:57;17.63;;;11.10;;
8986;SDS011;4529;51.360;12.474;2024-02-28T19:44:01;17.60;;;11.60;;
8986;SDS011;4529;51.360;12.474;2024-02-28T19:49:05;19.67;;;12.57;;
8986;SDS011;4529;51.360;12.474;2024-02-28T19:54:10;18.67;;;12.30;;
8986;SDS011;4529;51.360;12.474;2024-02-28T19:59:14;21.13;;;13.27;;
8986;SDS011;4529;51.360;12.474;2024-02-28T20:04:18;20.50;;;13.13;;
8986;SDS011;4529;51.360;12.474;2024-02-28T20:09:22;20.43;;;13.43;;
8986;SDS011;4529;51.360;12.474;2024-02-28T20:14:26;19.37;;;12.77;;
8986;SDS011;4529;51.360;12.474;2024-02-28T20:19:30;18.90;;;13.03;;
8986;SDS011;4529;51.360;12.474;2024-02-28T20:24:33;20.23;;;12.90;;
8986;SDS011;4529;51.360;12.474;2024-02-28T20:29:37;22.10;;;13.10;;
8986;SDS011;4529;51.360;12.474;2024-02-28T20:34:40;21.47;;;13.20;;
8986;SDS011;4529;51.360;12.474;2024-02-28T20:39:44;18.07;;;11.73;;
8986;SDS011;4529;51.360;12.474;2024-02-28T20:44:48;19.23;;;13.00;;
8986;SDS011;4529;51.360;12.474;2024-02-28T20:49:52;18.90;;;11.87;;
8986;SDS011;4529;51.360;12.474;2024-02-28T20:54:57;19.37;;;12.77;;
8986;SDS011;4529;51.360;12.474;2024-02-28T21:00:01;19.50;;;12.47;;
8986;SDS011;4529;51.360;12.474;2024-02-28T21:05:04;20.70;;;12.13;;
8986;SDS011;4529;51.360;12.474;2024-02-28T21:10:08;22.40;;;13.07;;
8986;SDS011;4529;51.360;12.474;2024-02-28T21:15:12;19.67;;;12.70;;
8986;SDS011;4529;51.360;12.474;2024-02-28T21:20:16;20.43;;;12.80;;
8986;SDS011;4529;51.360;12.474;2024-02-28T21:25:20;19.17;;;12.27;;
8986;SDS011;4529;51.360;12.474;2024-02-28T21:30:23;18.83;;;12.33;;
8986;SDS011;4529;51.360;12.474;2024-02-28T21:35:27;18.70;;;12.30;;
8986;SDS011;4529;51.360;12.474;2024-02-28T21:40:30;21.30;;;12.67;;
8986;SDS011;4529;51.360;12.474;2024-02-28T21:45:34;22.50;;;13.20;;
8986;SDS011;4529;51.360;12.474;2024-02-28T21:50:37;21.07;;;12.60;;
8986;SDS011;4529;51.360;12.474;2024-02-28T21:55:41;21.97;;;13.13;;
8986;SDS011;4529;51.360;12.474;2024-02-28T22:00:44;21.67;;;13.37;;
8986;SDS011;4529;51.360;12.474;2024-02-28T22:05:48;21.20;;;13.00;;
8986;SDS011;4529;51.360;12.474;2024-02-28T22:10:52;22.03;;;13.60;;
8986;SDS011;4529;51.360;12.474;2024-02-28T22:15:57;19.10;;;13.07;;
8986;SDS011;4529;51.360;12.474;2024-02-28T22:21:01;21.07;;;13.63;;
8986;SDS011;4529;51.360;12.474;2024-02-28T22:26:05;20.47;;;13.13;;
8986;SDS011;4529;51.360;12.474;2024-02-28T22:31:09;19.33;;;12.80;;
8986;SDS011;4529;51.360;12.474;2024-02-28T22:36:12;18.53;;;12.80;;
8986;SDS011;4529;51.360;12.474;2024-02-28T22:41:22;23.47;;;12.93;;
8986;SDS011;4529;51.360;12.474;2024-02-28T22:46:25;21.53;;;13.33;;
8986;SDS011;4529;51.360;12.474;2024-02-28T22:51:29;17.33;;;11.97;;
8986;SDS011;4529;51.360;12.474;2024-02-28T22:56:35;20.23;;;12.60;;
8986;SDS011;4529;51.360;12.474;2024-02-28T23:01:39;19.50;;;12.27;;
8986;SDS011;4529;51.360;12.474;2024-02-28T23:06:43;19.00;;;12.97;;
8986;SDS011;4529;51.360;12.474;2024-02-28T23:11:47;19.03;;;12.93;;
8986;SDS011;4529;51.360;12.474;2024-02-28T23:16:50;19.87;;;12.57;;
8986;SDS011;4529;51.360;12.474;2024-02-28T23:21:54;19.40;;;13.10;;
8986;SDS011;4529;51.360;12.474;2024-02-28T23:26:57;17.70;;;12.10;;
8986;SDS011;4529;51.360;12.474;2024-02-28T23:32:01;20.17;;;13.30;;
8986;SDS011;4529;51.360;12.474;2024-02-28T23:37:04;20.33;;;12.70;;
8986;SDS011;4529;51.360;12.474;2024-02-28T23:42:08;20.30;;;13.13;;
8986;SDS011;4529;51.360;12.474;2024-02-28T23:47:12;18.63;;;11.97;;
8986;SDS011;4529;51.360;12.474;2024-02-28T23:52:16;17.37;;;11.73;;
8986;SDS011;4529;51.360;12.474;2024-02-28T23:57:20;21.80;;;12.27;;
